createdAt,value
2023-01-01T00:02:37.704Z,1006.14
2023-01-01T00:05:37.586Z,1006.13
2023-01-01T00:08:37.574Z,1006.08
2023-01-01T00:11:37.572Z,1006.01
2023-01-01T00:14:37.577Z,1006.02
2023-01-01T00:17:37.573Z,1006.1
2023-01-01T00:20:37.582Z,1006.02
2023-01-01T00:23:37.570Z,1005.94
2023-01-01T00:26:37.609Z,1005.99
2023-01-01T00:29:37.573Z,1005.97
2023-01-01T00:32:37.575Z,1005.87
2023-01-01T00:35:37.575Z,1005.92
2023-01-01T00:38:37.586Z,1005.97
2023-01-01T00:41:37.580Z,1005.88
2023-01-01T00:44:37.577Z,1005.87
2023-01-01T00:47:37.581Z,1005.9
2023-01-01T00:50:37.573Z,1005.94
2023-01-01T00:53:37.573Z,1005.96
2023-01-01T00:56:37.602Z,1006.02
2023-01-01T00:59:37.573Z,1005.96
2023-01-01T01:02:37.696Z,1005.96
2023-01-01T01:05:37.580Z,1006
2023-01-01T01:08:37.578Z,1006.01
2023-01-01T01:11:37.574Z,1006.01
2023-01-01T01:14:37.580Z,1006.02
2023-01-01T01:17:37.639Z,1005.99
2023-01-01T01:20:37.586Z,1005.96
2023-01-01T01:23:37.587Z,1005.99
2023-01-01T01:26:37.594Z,1006
2023-01-01T01:29:37.587Z,1006.05
2023-01-01T01:32:37.592Z,1006.13
2023-01-01T01:35:37.602Z,1006.11
2023-01-01T01:38:37.587Z,1006.09
2023-01-01T01:41:37.597Z,1006.12
2023-01-01T01:44:37.591Z,1006.11
2023-01-01T01:47:37.591Z,1006.12
2023-01-01T01:50:37.591Z,1006.11
2023-01-01T01:53:37.586Z,1006.05
2023-01-01T01:56:37.582Z,1006.06
2023-01-01T01:59:37.590Z,1006.09
2023-01-01T02:02:37.690Z,1006.11
2023-01-01T02:05:37.586Z,1006.07
2023-01-01T02:08:37.590Z,1006.15
2023-01-01T02:11:37.588Z,1006.26
2023-01-01T02:14:37.587Z,1006.27
2023-01-01T02:17:39.431Z,1006.3
2023-01-01T02:20:37.582Z,1006.3
2023-01-01T02:23:37.586Z,1006.33
2023-01-01T02:26:37.583Z,1006.36
2023-01-01T02:29:37.591Z,1006.4
2023-01-01T02:32:37.582Z,1006.43
2023-01-01T02:35:37.649Z,1006.41
2023-01-01T02:38:37.592Z,1006.41
2023-01-01T02:41:37.599Z,1006.44
2023-01-01T02:44:37.587Z,1006.5
2023-01-01T02:47:37.595Z,1006.58
2023-01-01T02:50:37.592Z,1006.6
2023-01-01T02:53:37.585Z,1006.69
2023-01-01T02:56:37.591Z,1006.7
2023-01-01T02:59:37.597Z,1006.71
2023-01-01T03:02:37.629Z,1006.74
2023-01-01T03:05:37.589Z,1006.76
2023-01-01T03:08:37.590Z,1006.74
2023-01-01T03:11:37.593Z,1006.71
2023-01-01T03:14:37.597Z,1006.65
2023-01-01T03:17:37.585Z,1006.6
2023-01-01T03:20:37.593Z,1006.57
2023-01-01T03:23:37.597Z,1006.59
2023-01-01T03:26:37.596Z,1006.64
2023-01-01T03:29:37.590Z,1006.61
2023-01-01T03:32:37.590Z,1006.57
2023-01-01T03:35:37.594Z,1006.6
2023-01-01T03:38:37.595Z,1006.62
2023-01-01T03:41:37.595Z,1006.63
2023-01-01T03:44:37.596Z,1006.64
2023-01-01T03:47:37.589Z,1006.65
2023-01-01T03:50:37.591Z,1006.71
2023-01-01T03:53:37.602Z,1006.73
2023-01-01T03:56:37.606Z,1006.72
2023-01-01T03:59:37.599Z,1006.73
2023-01-01T04:02:37.707Z,1006.74
2023-01-01T04:05:37.594Z,1006.77
2023-01-01T04:08:37.592Z,1006.76
2023-01-01T04:11:37.591Z,1006.72
2023-01-01T04:14:37.593Z,1006.68
2023-01-01T04:17:37.598Z,1006.64
2023-01-01T04:20:37.596Z,1006.62
2023-01-01T04:23:37.591Z,1006.62
2023-01-01T04:26:37.599Z,1006.63
2023-01-01T04:29:37.597Z,1006.61
2023-01-01T04:32:37.591Z,1006.64
2023-01-01T04:35:37.599Z,1006.7
2023-01-01T04:38:37.615Z,1006.66
2023-01-01T04:41:37.603Z,1006.63
2023-01-01T04:44:37.618Z,1006.52
2023-01-01T04:47:37.596Z,1006.62
2023-01-01T04:50:37.594Z,1006.58
2023-01-01T04:53:37.594Z,1006.64
2023-01-01T04:56:37.592Z,1006.68
2023-01-01T04:59:37.607Z,1006.73
2023-01-01T05:02:37.673Z,1006.69
2023-01-01T05:05:37.592Z,1006.74
2023-01-01T05:08:37.591Z,1006.84
2023-01-01T05:11:37.598Z,1006.93
2023-01-01T05:14:37.598Z,1006.96
2023-01-01T05:17:37.594Z,1006.95
2023-01-01T05:20:37.600Z,1006.97
2023-01-01T05:23:37.604Z,1007.01
2023-01-01T05:26:37.609Z,1007.08
2023-01-01T05:29:37.600Z,1007.18
2023-01-01T05:32:37.601Z,1007.22
2023-01-01T05:35:37.602Z,1007.27
2023-01-01T05:38:37.605Z,1007.31
2023-01-01T05:41:37.636Z,1007.32
2023-01-01T05:44:37.597Z,1007.27
2023-01-01T05:47:37.599Z,1007.22
2023-01-01T05:50:37.596Z,1007.25
2023-01-01T05:53:37.599Z,1007.25
2023-01-01T05:56:37.598Z,1007.27
2023-01-01T05:59:37.599Z,1007.23
2023-01-01T06:02:37.654Z,1007.18
2023-01-01T06:05:37.599Z,1007.19
2023-01-01T06:08:37.602Z,1007.17
2023-01-01T06:11:37.598Z,1007.22
2023-01-01T06:14:37.606Z,1007.24
2023-01-01T06:17:37.604Z,1007.38
2023-01-01T06:20:37.599Z,1007.32
2023-01-01T06:23:37.628Z,1007.37
2023-01-01T06:26:37.598Z,1007.38
2023-01-01T06:29:37.598Z,1007.44
2023-01-01T06:32:37.598Z,1007.45
2023-01-01T06:35:37.597Z,1007.44
2023-01-01T06:38:37.597Z,1007.45
2023-01-01T06:41:37.597Z,1007.52
2023-01-01T06:44:37.600Z,1007.56
2023-01-01T06:47:37.596Z,1007.61
2023-01-01T06:50:37.595Z,1007.61
2023-01-01T06:53:37.602Z,1007.64
2023-01-01T06:56:37.601Z,1007.74
2023-01-01T06:59:37.599Z,1007.8
2023-01-01T07:02:37.792Z,1007.79
2023-01-01T07:05:37.597Z,1007.81
2023-01-01T07:08:37.601Z,1007.83
2023-01-01T07:11:37.601Z,1007.85
2023-01-01T07:14:37.598Z,1007.86
2023-01-01T07:17:37.588Z,1007.86
2023-01-01T07:20:37.590Z,1007.86
2023-01-01T07:23:37.611Z,1007.8
2023-01-01T07:26:37.602Z,1007.83
2023-01-01T07:29:37.597Z,1007.83
2023-01-01T07:32:37.600Z,1007.86
2023-01-01T07:35:37.608Z,1007.92
2023-01-01T07:38:37.719Z,1008.05
2023-01-01T07:41:37.622Z,1008.08
2023-01-01T07:44:37.607Z,1008.28
2023-01-01T07:47:37.595Z,1008.33
2023-01-01T07:50:37.597Z,1008.35
2023-01-01T07:53:37.669Z,1008.34
2023-01-01T07:56:37.594Z,1008.38
2023-01-01T07:59:37.593Z,1008.45
2023-01-01T08:02:37.674Z,1008.54
2023-01-01T08:05:37.597Z,1008.55
2023-01-01T08:08:37.607Z,1008.52
2023-01-01T08:11:37.604Z,1008.35
2023-01-01T08:14:37.603Z,1008.27
2023-01-01T08:17:40.987Z,1008.43
2023-01-01T08:20:37.622Z,1008.47
2023-01-01T08:23:37.600Z,1008.59
2023-01-01T08:26:37.598Z,1008.62
2023-01-01T08:29:37.596Z,1008.58
2023-01-01T08:32:37.622Z,1008.64
2023-01-01T08:35:37.604Z,1008.63
2023-01-01T08:38:37.603Z,1008.62
2023-01-01T08:41:37.604Z,1008.65
2023-01-01T08:44:37.598Z,1008.77
2023-01-01T08:47:37.600Z,1008.8
2023-01-01T08:50:37.600Z,1008.82
2023-01-01T08:53:37.602Z,1008.83
2023-01-01T08:56:37.603Z,1008.9
2023-01-01T08:59:37.601Z,1008.9
2023-01-01T09:02:37.884Z,1008.9
2023-01-01T09:05:37.610Z,1008.85
2023-01-01T09:08:37.600Z,1008.9
2023-01-01T09:11:37.607Z,1008.95
2023-01-01T09:14:37.608Z,1008.95
2023-01-01T09:17:37.605Z,1009
2023-01-01T09:20:37.623Z,1009.03
2023-01-01T09:23:37.716Z,1009.06
2023-01-01T09:26:37.756Z,1009.12
2023-01-01T09:29:37.722Z,1009.14
2023-01-01T09:32:37.626Z,1009.23
2023-01-01T09:35:37.625Z,1009.27
2023-01-01T09:38:37.612Z,1009.16
2023-01-01T09:41:37.621Z,1009.2
2023-01-01T09:44:37.623Z,1009.17
2023-01-01T09:47:37.615Z,1009.2
2023-01-01T09:50:37.624Z,1009.15
2023-01-01T09:53:37.617Z,1009.14
2023-01-01T09:56:37.628Z,1009.14
2023-01-01T09:59:37.615Z,1009.23
2023-01-01T10:02:37.662Z,1009.21
2023-01-01T10:05:37.635Z,1009.1
2023-01-01T10:08:37.634Z,1008.99
2023-01-01T10:11:37.619Z,1008.94
2023-01-01T10:14:37.650Z,1008.97
2023-01-01T10:17:37.629Z,1008.95
2023-01-01T10:20:37.621Z,1008.98
2023-01-01T10:23:37.622Z,1008.97
2023-01-01T10:26:37.626Z,1008.97
2023-01-01T10:29:37.632Z,1008.95
2023-01-01T10:32:37.629Z,1008.97
2023-01-01T10:35:37.625Z,1008.97
2023-01-01T10:38:37.627Z,1008.98
2023-01-01T10:41:37.629Z,1008.96
2023-01-01T10:44:37.634Z,1009.02
2023-01-01T10:47:37.626Z,1009.05
2023-01-01T10:50:37.623Z,1009.08
2023-01-01T10:53:37.634Z,1009.06
2023-01-01T10:56:37.623Z,1008.99
2023-01-01T10:59:37.626Z,1008.94
2023-01-01T11:02:37.747Z,1008.95
2023-01-01T11:05:37.635Z,1008.95
2023-01-01T11:08:37.631Z,1008.96
2023-01-01T11:11:37.627Z,1008.94
2023-01-01T11:14:37.633Z,1008.91
2023-01-01T11:17:37.621Z,1008.89
2023-01-01T11:20:37.630Z,1008.8
2023-01-01T11:23:37.636Z,1008.7
2023-01-01T11:26:37.628Z,1008.55
2023-01-01T11:29:37.634Z,1008.45
2023-01-01T11:32:37.629Z,1008.47
2023-01-01T11:35:37.630Z,1008.4
2023-01-01T11:38:37.633Z,1008.37
2023-01-01T11:41:37.635Z,1008.41
2023-01-01T11:44:37.639Z,1008.37
2023-01-01T11:47:37.640Z,1008.34
2023-01-01T11:50:37.638Z,1008.4
2023-01-01T11:53:37.635Z,1008.39
2023-01-01T11:56:37.634Z,1008.38
2023-01-01T11:59:37.635Z,1008.37
2023-01-01T12:02:37.663Z,1008.39
2023-01-01T12:05:37.635Z,1008.44
2023-01-01T12:08:37.638Z,1008.46
2023-01-01T12:11:37.640Z,1008.51
2023-01-01T12:14:37.637Z,1008.53
2023-01-01T12:17:37.641Z,1008.59
2023-01-01T12:20:37.646Z,1008.53
2023-01-01T12:23:37.637Z,1008.51
2023-01-01T12:26:37.641Z,1008.5
2023-01-01T12:29:37.639Z,1008.52
2023-01-01T12:32:37.642Z,1008.61
2023-01-01T12:35:37.649Z,1008.63
2023-01-01T12:38:37.639Z,1008.63
2023-01-01T12:41:37.652Z,1008.63
2023-01-01T12:44:37.643Z,1008.63
2023-01-01T12:47:37.643Z,1008.58
2023-01-01T12:50:37.655Z,1008.48
2023-01-01T12:53:37.643Z,1008.42
2023-01-01T12:56:37.647Z,1008.33
2023-01-01T12:59:37.647Z,1008.28
2023-01-01T13:02:37.736Z,1008.2
2023-01-01T13:05:37.664Z,1008.27
2023-01-01T13:08:37.655Z,1008.31
2023-01-01T13:11:41.434Z,1008.38
2023-01-01T13:14:37.642Z,1008.34
2023-01-01T13:17:37.647Z,1008.34
2023-01-01T13:20:37.640Z,1008.32
2023-01-01T13:23:37.661Z,1008.38
2023-01-01T13:26:37.652Z,1008.4
2023-01-01T13:29:37.644Z,1008.36
2023-01-01T13:32:37.657Z,1008.35
2023-01-01T13:35:37.650Z,1008.4
2023-01-01T13:38:37.646Z,1008.45
2023-01-01T13:41:37.655Z,1008.49
2023-01-01T13:44:37.652Z,1008.5
2023-01-01T13:47:37.661Z,1008.46
2023-01-01T13:50:37.652Z,1008.48
2023-01-01T13:53:37.664Z,1008.48
2023-01-01T13:56:39.203Z,1008.46
2023-01-01T13:59:38.277Z,1008.41
2023-01-01T14:02:38.380Z,1008.44
2023-01-01T14:05:38.276Z,1008.43
2023-01-01T14:08:38.274Z,1008.4
2023-01-01T14:11:38.272Z,1008.41
2023-01-01T14:14:38.268Z,1008.36
2023-01-01T14:17:38.274Z,1008.28
2023-01-01T14:20:38.291Z,1008.39
2023-01-01T14:23:38.274Z,1008.46
2023-01-01T14:26:38.277Z,1008.44
2023-01-01T14:29:38.274Z,1008.56
2023-01-01T14:32:38.274Z,1008.54
2023-01-01T14:35:38.330Z,1008.55
2023-01-01T14:38:38.277Z,1008.54
2023-01-01T14:41:38.277Z,1008.58
2023-01-01T14:44:38.267Z,1008.48
2023-01-01T14:47:38.288Z,1008.5
2023-01-01T14:50:38.276Z,1008.51
2023-01-01T14:53:38.275Z,1008.53
2023-01-01T14:56:38.295Z,1008.5
2023-01-01T14:59:42.564Z,1008.51
2023-01-01T15:02:38.443Z,1008.52
2023-01-01T15:05:38.274Z,1008.51
2023-01-01T15:08:38.276Z,1008.5
2023-01-01T15:11:38.283Z,1008.5
2023-01-01T15:14:38.290Z,1008.51
2023-01-01T15:17:38.280Z,1008.52
2023-01-01T15:20:38.279Z,1008.57
2023-01-01T15:23:38.275Z,1008.49
2023-01-01T15:26:38.285Z,1008.46
2023-01-01T15:29:38.280Z,1008.39
2023-01-01T15:32:38.279Z,1008.4
2023-01-01T15:35:38.339Z,1008.39
2023-01-01T15:38:38.279Z,1008.49
2023-01-01T15:41:38.280Z,1008.5
2023-01-01T15:44:38.286Z,1008.43
2023-01-01T15:47:38.288Z,1008.4
2023-01-01T15:50:38.309Z,1008.37
2023-01-01T15:53:38.277Z,1008.36
2023-01-01T15:56:38.284Z,1008.36
2023-01-01T15:59:38.277Z,1008.38
2023-01-01T16:02:38.401Z,1008.39
2023-01-01T16:05:38.281Z,1008.36
2023-01-01T16:08:38.287Z,1008.37
2023-01-01T16:11:38.281Z,1008.41
2023-01-01T16:14:38.286Z,1008.42
2023-01-01T16:17:38.288Z,1008.4
2023-01-01T16:20:38.283Z,1008.36
2023-01-01T16:23:38.300Z,1008.39
2023-01-01T16:26:38.280Z,1008.24
2023-01-01T16:29:39.529Z,1008.17
2023-01-01T16:32:38.285Z,1008.14
2023-01-01T16:35:38.289Z,1008.15
2023-01-01T16:38:38.296Z,1008.21
2023-01-01T16:41:38.292Z,1008.13
2023-01-01T16:44:38.296Z,1008.14
2023-01-01T16:47:38.294Z,1008.03
2023-01-01T16:50:39.465Z,1008.07
2023-01-01T16:53:38.607Z,1008.16
2023-01-01T16:56:38.591Z,1008.15
2023-01-01T16:59:38.598Z,1008.13
2023-01-01T17:02:38.747Z,1008.09
2023-01-01T17:05:43.719Z,1008.08
2023-01-01T17:08:38.609Z,1008
2023-01-01T17:11:38.586Z,1008
2023-01-01T17:14:38.590Z,1007.97
2023-01-01T17:17:38.600Z,1007.93
2023-01-01T17:20:38.673Z,1007.87
2023-01-01T17:23:38.612Z,1007.79
2023-01-01T17:26:38.590Z,1007.79
2023-01-01T17:29:38.588Z,1007.7
2023-01-01T17:32:38.652Z,1007.69
2023-01-01T17:35:38.656Z,1007.58
2023-01-01T17:38:38.689Z,1007.56
2023-01-01T17:41:38.647Z,1007.65
2023-01-01T17:44:38.633Z,1007.72
2023-01-01T17:47:38.629Z,1007.72
2023-01-01T17:50:38.666Z,1007.66
2023-01-01T17:53:38.655Z,1007.57
2023-01-01T17:56:38.636Z,1007.58
2023-01-01T17:59:38.665Z,1007.59
2023-01-01T18:02:38.776Z,1007.56
2023-01-01T18:05:38.664Z,1007.59
2023-01-01T18:08:38.646Z,1007.59
2023-01-01T18:11:38.639Z,1007.48
2023-01-01T18:14:38.645Z,1007.33
2023-01-01T18:17:38.646Z,1007.24
2023-01-01T18:20:38.653Z,1007.21
2023-01-01T18:23:39.652Z,1007.14
2023-01-01T18:26:38.643Z,1007.09
2023-01-01T18:29:38.654Z,1007.22
2023-01-01T18:32:38.640Z,1007.17
2023-01-01T18:35:38.670Z,1007.16
2023-01-01T18:38:38.661Z,1007.18
2023-01-01T18:41:38.653Z,1007.24
2023-01-01T18:44:38.662Z,1007.18
2023-01-01T18:47:38.660Z,1007.12
2023-01-01T18:50:38.648Z,1007.09
2023-01-01T18:53:38.651Z,1007.08
2023-01-01T18:56:38.663Z,1007.05
2023-01-01T18:59:38.658Z,1006.99
2023-01-01T19:02:38.836Z,1006.93
2023-01-01T19:05:38.666Z,1006.84
2023-01-01T19:08:38.656Z,1006.82
2023-01-01T19:11:38.657Z,1006.72
2023-01-01T19:14:38.658Z,1006.7
2023-01-01T19:17:38.670Z,1006.72
2023-01-01T19:20:38.653Z,1006.74
2023-01-01T19:23:38.667Z,1006.73
2023-01-01T19:26:38.657Z,1006.7
2023-01-01T19:29:38.659Z,1006.61
2023-01-01T19:32:38.669Z,1006.6
2023-01-01T19:35:38.663Z,1006.53
2023-01-01T19:38:38.670Z,1006.51
2023-01-01T19:41:38.663Z,1006.46
2023-01-01T19:44:38.676Z,1006.43
2023-01-01T19:47:38.676Z,1006.51
2023-01-01T19:50:38.674Z,1006.59
2023-01-01T19:53:38.672Z,1006.52
2023-01-01T19:56:38.680Z,1006.51
2023-01-01T19:59:38.676Z,1006.45
2023-01-01T20:02:46.837Z,1006.46
2023-01-01T20:05:38.672Z,1006.5
2023-01-01T20:08:38.689Z,1006.49
2023-01-01T20:11:38.678Z,1006.47
2023-01-01T20:14:38.682Z,1006.53
2023-01-01T20:17:38.693Z,1006.53
2023-01-01T20:20:38.681Z,1006.46
2023-01-01T20:23:38.693Z,1006.42
2023-01-01T20:26:38.684Z,1006.41
2023-01-01T20:29:38.721Z,1006.34
2023-01-01T20:32:38.687Z,1006.38
2023-01-01T20:35:38.672Z,1006.46
2023-01-01T20:38:40.448Z,1006.58
2023-01-01T20:41:38.697Z,1006.49
2023-01-01T20:44:38.691Z,1006.41
2023-01-01T20:47:38.691Z,1006.43
2023-01-01T20:50:38.682Z,1006.34
2023-01-01T20:53:38.686Z,1006.38
2023-01-01T20:56:38.687Z,1006.39
2023-01-01T20:59:38.910Z,1006.42
2023-01-01T21:02:38.762Z,1006.52
2023-01-01T21:05:38.683Z,1006.58
2023-01-01T21:08:38.701Z,1006.53
2023-01-01T21:11:38.699Z,1006.54
2023-01-01T21:14:38.691Z,1006.49
2023-01-01T21:17:38.703Z,1006.57
2023-01-01T21:20:38.696Z,1006.51
2023-01-01T21:23:38.701Z,1006.5
2023-01-01T21:26:38.702Z,1006.51
2023-01-01T21:29:38.703Z,1006.52
2023-01-01T21:32:38.693Z,1006.49
2023-01-01T21:35:38.796Z,1006.52
2023-01-01T21:38:38.721Z,1006.46
2023-01-01T21:41:38.717Z,1006.43
2023-01-01T21:44:38.736Z,1006.55
2023-01-01T21:47:38.718Z,1006.54
2023-01-01T21:50:38.723Z,1006.6
2023-01-01T21:53:38.729Z,1006.64
2023-01-01T21:56:38.728Z,1006.54
2023-01-01T21:59:38.724Z,1006.48
2023-01-01T22:02:38.912Z,1006.45
2023-01-01T22:05:38.728Z,1006.56
2023-01-01T22:08:38.725Z,1006.51
2023-01-01T22:11:38.731Z,1006.48
2023-01-01T22:14:38.739Z,1006.51
2023-01-01T22:17:38.809Z,1006.5
2023-01-01T22:20:38.748Z,1006.63
2023-01-01T22:23:38.757Z,1006.63
2023-01-01T22:26:38.736Z,1006.63
2023-01-01T22:29:38.743Z,1006.64
2023-01-01T22:32:38.741Z,1006.62
2023-01-01T22:35:38.739Z,1006.52
2023-01-01T22:38:38.736Z,1006.46
2023-01-01T22:41:38.746Z,1006.54
2023-01-01T22:44:38.748Z,1006.59
2023-01-01T22:47:38.741Z,1006.49
2023-01-01T22:50:38.742Z,1006.46
2023-01-01T22:53:38.737Z,1006.64
2023-01-01T22:56:38.756Z,1006.59
2023-01-01T22:59:38.743Z,1006.53
2023-01-01T23:02:38.801Z,1006.53
2023-01-01T23:05:38.757Z,1006.5
2023-01-01T23:08:38.768Z,1006.51
2023-01-01T23:11:38.766Z,1006.51
2023-01-01T23:14:39.396Z,1006.53
2023-01-01T23:17:38.770Z,1006.57
2023-01-01T23:20:38.759Z,1006.62
2023-01-01T23:23:38.769Z,1006.5
2023-01-01T23:26:38.773Z,1006.38
2023-01-01T23:29:38.762Z,1006.44
2023-01-01T23:32:38.774Z,1006.44
2023-01-01T23:35:38.772Z,1006.41
2023-01-01T23:38:38.792Z,1006.43
2023-01-01T23:41:38.763Z,1006.39
2023-01-01T23:44:38.773Z,1006.31
2023-01-01T23:47:38.776Z,1006.29
2023-01-01T23:50:38.771Z,1006.22
2023-01-01T23:53:38.765Z,1006.26
2023-01-01T23:56:38.767Z,1006.24
2023-01-01T23:59:38.769Z,1006.22
